Time;durP1;ratioP1;P1;durP2;ratioP2;P2;SDS_P1;SDS_P2;PMS_P1;PMS_P2;Temp;Humidity;BMP_temperature;BMP_pressure;BME280_temperature;BME280_humidity;BME280_pressure;Samples;Min_cycle;Max_cycle;Signal;HPM_P1;HPM_P2
2022/05/14 00:01:39;;;;;;;6.35;3.08;;;9.80;1.00;;;10.12;78.87;98720.72;5059322;27;116774;-76
2022/05/14 00:04:09;;;;;;;7.88;3.42;;;9.80;1.00;;;10.10;78.92;98714.81;5066094;27;130265;-76
2022/05/14 00:06:37;;;;;;;6.95;3.42;;;9.80;1.00;;;10.11;79.02;98719.13;5063173;27;130947;-75
2022/05/14 00:09:07;;;;;;;6.80;2.88;;;9.80;1.00;;;10.13;78.71;98716.88;5063970;27;118931;-71
2022/05/14 00:14:23;;;;;;;10.02;3.53;;;9.80;1.00;;;10.14;78.82;98723.91;5064003;27;129954;-78
2022/05/14 00:16:52;;;;;;;7.90;2.78;;;9.80;1.00;;;10.09;79.11;98716.75;5065749;27;128717;-74
2022/05/14 00:19:22;;;;;;;7.15;3.20;;;9.70;1.00;;;10.01;79.68;98704.81;5068674;27;118075;-78
2022/05/14 00:21:50;;;;;;;6.43;3.67;;;9.60;1.00;;;9.97;79.60;98713.94;5068923;27;115762;-79
2022/05/14 00:24:19;;;;;;;5.30;2.92;;;9.50;1.00;;;9.91;80.04;98710.63;5070546;27;129443;-78
2022/05/14 00:26:48;;;;;;;5.22;2.80;;;9.50;1.00;;;9.88;80.23;98711.28;5065602;27;128847;-75
2022/05/14 00:29:17;;;;;;;6.47;3.38;;;9.50;1.00;;;9.84;80.44;98710.34;5068869;27;118453;-76
2022/05/14 00:31:46;;;;;;;7.82;3.28;;;9.40;1.00;;;9.83;80.46;98703.31;5062924;27;114145;-77
2022/05/14 00:34:15;;;;;;;5.35;2.90;;;9.30;1.00;;;9.81;80.38;98705.56;5065537;27;131420;-76
2022/05/14 00:36:44;;;;;;;6.82;3.30;;;9.30;1.00;;;9.79;80.09;98697.75;5067623;27;130213;-78
2022/05/14 00:39:13;;;;;;;10.25;3.45;;;9.40;1.00;;;9.80;79.99;98699.38;5068271;27;118989;-77
2022/05/14 00:41:49;;;;;;;7.57;3.28;;;9.40;1.00;;;9.77;79.57;98704.63;5073949;27;115325;-77
2022/05/14 00:44:18;;;;;;;5.07;2.63;;;9.30;1.00;;;9.74;79.34;98694.44;5063924;27;129886;-77
2022/05/14 00:46:52;;;;;;;6.93;3.22;;;9.40;1.00;;;9.67;79.25;98695.72;5052313;27;128223;-78
2022/05/14 00:49:26;;;;;;;10.65;3.08;;;9.40;1.00;;;9.64;78.74;98701.78;5074330;27;117778;-75
2022/05/14 00:51:54;;;;;;;5.80;3.00;;;9.40;1.00;;;9.61;78.66;98691.59;5068492;27;115269;-75
2022/05/14 00:54:35;;;;;;;6.80;3.20;;;9.30;1.00;;;9.56;78.81;98699.91;5069197;27;130459;-76
2022/05/14 00:57:10;;;;;;;10.35;3.40;;;9.30;1.00;;;9.55;78.50;98695.59;5071715;27;128834;-75
2022/05/14 00:59:39;;;;;;;8.57;2.83;;;9.30;1.00;;;9.51;78.70;98697.41;5054845;27;117934;-77
2022/05/14 01:02:07;;;;;;;9.93;3.30;;;9.20;1.00;;;9.48;78.06;98703.47;5069167;27;115097;-70
2022/05/14 01:04:40;;;;;;;7.53;3.13;;;9.20;1.00;;;9.46;78.42;98694.88;5070867;27;130422;-75
2022/05/14 01:07:13;;;;;;;7.32;3.00;;;9.20;1.00;;;9.41;78.59;98708.56;5066846;27;129015;-76
2022/05/14 01:09:50;;;;;;;6.85;3.60;;;9.20;1.00;;;9.38;78.27;98709.22;5054627;27;116542;-76
2022/05/14 01:12:23;;;;;;;8.80;3.03;;;9.20;1.00;;;9.30;78.51;98714.34;5064884;27;116573;-73
2022/05/14 01:14:51;;;;;;;6.53;3.20;;;9.20;1.00;;;9.26;78.81;98713.38;5065320;27;130094;-75
2022/05/14 01:17:21;;;;;;;7.05;2.85;;;9.10;1.00;;;9.19;79.48;98715.78;5064682;27;129868;-77
2022/05/14 01:19:49;;;;;;;9.32;3.10;;;9.00;1.00;;;9.15;80.06;98712.91;5049265;27;117972;-76
2022/05/14 01:22:45;;;;;;;6.90;2.67;;;8.90;1.00;;;9.00;80.98;98706.09;5063682;27;115279;-76
2022/05/14 01:28:20;;;;;;;5.63;3.33;;;8.80;1.00;;;8.95;81.75;98700.84;5064856;27;130574;-79
2022/05/14 01:30:56;;;;;;;9.38;3.47;;;8.70;1.00;;;8.92;82.65;98711.53;5062331;27;119149;-76
2022/05/14 01:33:25;;;;;;;6.63;3.33;;;8.60;1.00;;;8.81;82.99;98700.22;5064079;27;115314;-76
2022/05/14 01:35:55;;;;;;;5.13;3.00;;;8.60;1.00;;;8.81;83.37;98700.22;5070597;27;129735;-77
2022/05/14 01:38:26;;;;;;;4.85;2.90;;;8.50;1.00;;;8.72;84.07;98699.44;5068715;27;129476;-78
2022/05/14 01:40:55;;;;;;;5.85;3.03;;;8.40;1.00;;;8.63;84.51;98702.94;5068375;27;118803;-74
2022/05/14 01:43:24;;;;;;;10.68;3.75;;;8.30;1.00;;;8.63;84.67;98713.75;5073102;27;115219;-76
2022/05/14 01:45:53;;;;;;;7.43;3.17;;;8.30;1.00;;;8.57;85.34;98709.63;5071020;27;130085;-75
2022/05/14 01:48:22;;;;;;;5.03;2.70;;;8.20;1.00;;;8.54;85.06;98710.25;5072291;27;130572;-75
2022/05/14 01:50:50;;;;;;;6.97;3.53;;;8.20;1.00;;;8.50;85.36;98714.69;5056172;27;118402;-77
2022/05/14 01:53:20;;;;;;;10.38;3.60;;;8.30;1.00;;;8.47;85.21;98714.53;5069545;27;114886;-74
2022/05/14 01:55:49;;;;;;;6.25;3.00;;;8.20;1.00;;;8.43;85.03;98711.63;5068560;27;129495;-76
2022/05/14 02:01:15;;;;;;;6.25;3.15;;;8.20;1.00;;;8.34;84.86;98722.44;5069469;27;118722;-76
2022/05/14 02:03:46;;;;;;;5.55;3.08;;;8.10;1.00;;;8.33;84.59;98717.34;5067251;27;116837;-75
2022/05/14 02:06:16;;;;;;;10.60;3.38;;;8.10;1.00;;;8.34;84.45;98717.03;5068788;27;129749;-77
2022/05/14 02:08:45;;;;;;;9.43;3.50;;;8.10;1.00;;;8.31;84.18;98716.88;5070544;27;129743;-76
2022/05/14 02:11:15;;;;;;;8.52;3.78;;;8.10;1.00;;;8.32;83.69;98724.66;5053360;27;117882;-78
2022/05/14 02:13:47;;;;;;;12.23;3.47;;;8.10;1.00;;;8.34;83.19;98724.34;5071105;27;115879;-76
2022/05/14 02:16:18;;;;;;;6.70;3.08;;;8.00;1.00;;;8.26;83.36;98724.00;5069275;27;129740;-76
2022/05/14 02:18:47;;;;;;;7.00;3.20;;;8.00;1.00;;;8.32;82.91;98718.44;5053413;27;129833;-74
2022/05/14 02:21:18;;;;;;;6.47;2.83;;;8.00;1.00;;;8.30;83.02;98717.97;5066260;27;119473;-76
2022/05/14 02:23:47;;;;;;;8.05;3.42;;;8.00;1.00;;;8.24;83.16;98723.53;5064011;27;117063;-74
2022/05/14 02:26:17;;;;;;;9.23;3.00;;;8.00;1.00;;;8.27;83.09;98712.09;5049651;27;129368;-76
2022/05/14 02:28:46;;;;;;;8.77;2.75;;;7.90;1.00;;;8.26;83.17;98718.59;5048883;27;129788;-77
2022/05/14 02:31:14;;;;;;;11.75;2.97;;;7.90;1.00;;;8.24;83.01;98720.84;5066959;27;119420;-75
2022/05/14 02:33:44;;;;;;;8.25;2.70;;;7.90;1.00;;;8.25;83.10;98722.41;5061432;27;115666;-75
2022/05/14 02:36:13;;;;;;;6.78;2.60;;;7.90;1.00;;;8.27;82.88;98720.19;5062604;27;130476;-75
2022/05/14 02:38:42;;;;;;;8.82;2.80;;;7.90;1.00;;;8.26;82.77;98729.41;5069146;27;129968;-74
2022/05/14 02:41:13;;;;;;;6.53;3.00;;;7.90;1.00;;;8.30;82.78;98726.09;5064812;27;118948;-75
2022/05/14 02:43:42;;;;;;;8.20;3.03;;;7.90;1.00;;;8.28;82.61;98732.59;5069832;27;115251;-75
2022/05/14 02:46:12;;;;;;;8.13;3.15;;;7.80;1.00;;;8.29;82.10;98730.69;5067186;27;130803;-78
2022/05/14 02:48:44;;;;;;;6.25;2.92;;;7.90;1.00;;;8.29;81.51;98733.41;5068220;27;129942;-78
2022/05/14 02:51:13;;;;;;;5.63;2.70;;;7.90;1.00;;;8.35;81.67;98744.84;5068124;27;117841;-77
2022/05/14 02:53:41;;;;;;;5.15;2.78;;;7.90;1.00;;;8.43;80.66;98738.66;5049304;27;114783;-78
2022/05/14 02:56:10;;;;;;;6.97;2.63;;;7.90;1.00;;;8.53;80.38;98740.31;5062935;27;130618;-77
2022/05/14 03:01:24;;;;;;;5.18;2.50;;;8.00;1.00;;;8.71;79.48;98746.53;5053308;27;118358;-74
2022/05/14 03:03:54;;;;;;;5.85;2.58;;;8.00;1.00;;;9.11;78.01;98741.75;5067003;27;116050;-77
2022/05/14 03:06:23;;;;;;;6.85;2.17;;;8.20;1.00;;;9.94;75.16;98742.50;5050290;27;129385;-76
2022/05/14 03:08:52;;;;;;;8.13;2.17;;;8.50;1.00;;;10.78;71.41;98742.69;5063730;27;131074;-78
2022/05/14 03:11:21;;;;;;;5.22;1.83;;;8.70;1.00;;;11.45;68.47;98741.91;5064561;27;118037;-78
2022/05/14 03:13:49;;;;;;;7.45;2.13;;;8.80;1.00;;;11.91;65.70;98750.84;5063463;27;115593;-76
2022/05/14 03:16:20;;;;;;;6.07;2.28;;;8.80;1.00;;;11.94;64.73;98746.69;5045940;27;129672;-77
2022/05/14 03:18:49;;;;;;;8.27;2.30;;;8.90;1.00;;;11.62;65.04;98751.81;5061633;27;129776;-74
2022/05/14 03:21:20;;;;;;;6.55;2.47;;;8.50;1.00;;;11.04;67.35;98738.94;5065230;27;119161;-77
2022/05/14 03:23:49;;;;;;;6.70;2.38;;;8.50;1.00;;;10.63;68.77;98729.69;5061117;27;115350;-79
2022/05/14 03:26:18;;;;;;;8.80;2.63;;;8.40;1.00;;;10.37;69.80;98732.56;5060447;27;130870;-72
2022/05/14 03:28:47;;;;;;;5.85;2.50;;;8.40;1.00;;;10.16;70.95;98737.91;5047841;27;129911;-74
2022/05/14 03:31:15;;;;;;;6.55;2.55;;;8.40;1.00;;;10.12;71.07;98732.34;5063875;27;118787;-78
2022/05/14 03:33:43;;;;;;;6.10;2.50;;;8.40;1.00;;;9.97;72.04;98735.63;5064032;27;114337;-76
2022/05/14 03:36:12;;;;;;;4.90;2.45;;;8.50;1.00;;;9.97;72.31;98733.72;5062563;27;130839;-72
2022/05/14 03:38:43;;;;;;;6.57;2.35;;;8.50;1.00;;;10.00;72.39;98729.56;5058900;27;129576;-75
2022/05/14 03:41:12;;;;;;;5.05;2.67;;;8.60;1.00;;;10.00;72.33;98724.94;5062327;27;118635;-77
2022/05/14 03:43:41;;;;;;;6.72;2.25;;;8.60;1.00;;;9.98;72.40;98727.16;5059586;27;116277;-76
2022/05/14 03:46:10;;;;;;;6.22;2.35;;;8.60;1.00;;;10.04;72.12;98733.22;5046903;27;130203;-75
2022/05/14 03:48:39;;;;;;;5.22;2.28;;;8.70;1.00;;;9.99;72.81;98733.41;5064575;27;129478;-75
2022/05/14 03:51:09;;;;;;;8.27;2.60;;;8.70;1.00;;;10.05;72.53;98737.50;5046515;27;116736;-78
2022/05/14 03:53:40;;;;;;;6.50;2.22;;;8.70;1.00;;;10.14;72.25;98729.31;5064134;27;113786;-75
2022/05/14 03:56:10;;;;;;;4.45;2.47;;;8.80;1.00;;;10.21;71.50;98730.41;5064633;27;128968;-73
2022/05/14 03:58:39;;;;;;;5.75;2.67;;;8.80;1.00;;;10.18;72.09;98730.28;5060872;27;130192;-76
2022/05/14 04:01:08;;;;;;;8.23;2.72;;;8.80;1.00;;;10.19;71.89;98726.41;5060343;27;118994;-78
2022/05/14 04:03:36;;;;;;;5.15;2.40;;;8.90;1.00;;;10.28;71.01;98726.38;5061762;27;115615;-74
2022/05/14 04:06:06;;;;;;;7.50;2.45;;;8.80;1.00;;;10.28;71.69;98729.88;5059575;27;130148;-75
2022/05/14 04:08:35;;;;;;;7.38;2.33;;;9.00;1.00;;;10.34;70.87;98731.31;5049202;27;128368;-79
2022/05/14 04:11:04;;;;;;;7.75;2.42;;;9.00;1.00;;;10.34;71.06;98734.00;5066917;27;118903;-78
2022/05/14 04:13:35;;;;;;;7.38;2.58;;;9.00;1.00;;;10.40;70.92;98727.28;5064621;27;115791;-75
2022/05/14 04:16:06;;;;;;;6.80;2.28;;;9.00;1.00;;;10.38;70.41;98729.53;5064883;27;131102;-75
2022/05/14 04:18:37;;;;;;;5.82;2.38;;;9.10;1.00;;;10.45;70.64;98733.66;5065843;27;129001;-76
2022/05/14 04:21:07;;;;;;;6.82;2.65;;;9.10;1.00;;;10.53;70.56;98735.50;5064927;27;119204;-74
2022/05/14 04:23:35;;;;;;;6.85;2.38;;;9.30;1.00;;;10.55;70.25;98733.25;5067193;27;114168;-77
2022/05/14 04:26:06;;;;;;;6.97;2.50;;;9.30;1.00;;;10.72;69.89;98733.13;5065743;27;130043;-77
2022/05/14 04:28:37;;;;;;;6.40;2.33;;;9.40;1.00;;;10.85;69.15;98725.06;5067269;27;129661;-77
2022/05/14 04:31:06;;;;;;;6.32;2.58;;;9.30;1.00;;;10.78;69.82;98720.97;5065617;27;117960;-74
2022/05/14 04:33:35;;;;;;;5.88;2.28;;;9.40;1.00;;;10.96;68.05;98731.66;5067749;27;115615;-78
2022/05/14 04:36:04;;;;;;;5.10;2.15;;;9.40;1.00;;;10.92;68.37;98738.88;5061264;27;130609;-74
2022/05/14 04:38:34;;;;;;;4.97;2.05;;;9.50;1.00;;;11.07;68.19;98738.28;5056905;27;130302;-78
2022/05/14 04:41:03;;;;;;;5.80;2.05;;;9.50;1.00;;;11.00;67.33;98738.03;5059278;27;118482;-76
2022/05/14 04:43:32;;;;;;;6.47;2.00;;;9.60;1.00;;;11.18;66.81;98730.50;5045799;27;116543;-77
2022/05/14 04:46:07;;;;;;;6.95;2.35;;;9.70;1.00;;;11.27;67.21;98733.16;5057343;27;130410;-76
2022/05/14 04:48:37;;;;;;;8.63;2.58;;;9.80;1.00;;;11.45;66.89;98731.84;5045169;27;128975;-74
2022/05/14 04:51:06;;;;;;;5.10;2.05;;;9.90;1.00;;;11.57;65.69;98727.56;5064231;27;119864;-78
2022/05/14 04:53:35;;;;;;;6.90;2.38;;;10.00;1.00;;;11.59;64.65;98725.28;5061751;27;114977;-79
2022/05/14 04:56:04;;;;;;;6.30;2.00;;;9.90;1.00;;;11.68;65.23;98728.72;5063350;27;130311;-76
2022/05/14 04:58:32;;;;;;;7.07;2.38;;;10.00;1.00;;;11.74;65.24;98732.00;5064290;27;129030;-76
2022/05/14 05:01:02;;;;;;;12.70;3.03;;;10.20;1.00;;;11.92;65.18;98728.00;5062154;27;119418;-77
2022/05/14 05:03:29;;;;;;;5.72;1.90;;;10.40;1.00;;;11.94;63.71;98727.66;5062339;27;115242;-76
2022/05/14 05:06:02;;;;;;;5.78;2.00;;;10.40;1.00;;;12.05;63.53;98731.50;5063258;27;129017;-75
2022/05/14 05:08:34;;;;;;;5.63;2.63;;;10.60;1.00;;;12.22;61.87;98731.25;5061520;27;129901;-77
2022/05/14 05:11:03;;;;;;;7.35;2.47;;;10.40;1.00;;;12.07;61.95;98712.13;5063539;27;118653;-79
2022/05/14 05:13:35;;;;;;;6.20;2.30;;;10.50;1.00;;;12.08;61.98;98719.94;5063312;27;115398;-75
2022/05/14 05:16:06;;;;;;;7.63;2.10;;;10.30;1.00;;;11.91;62.13;98715.50;5061658;27;130969;-75
2022/05/14 05:18:34;;;;;;;6.07;1.95;;;10.50;1.00;;;11.94;61.95;98714.06;5061603;27;129445;-73
2022/05/14 05:21:03;;;;;;;5.65;2.17;;;10.60;1.00;;;12.30;61.53;98698.84;5061771;27;119181;-79
2022/05/14 05:23:32;;;;;;;8.35;2.22;;;10.60;1.00;;;12.42;61.29;98715.16;5061415;27;115819;-77
2022/05/14 05:26:01;;;;;;;5.80;2.35;;;10.90;1.00;;;12.50;61.05;98713.44;5064013;27;130735;-74
2022/05/14 05:28:30;;;;;;;8.25;2.40;;;10.60;1.00;;;12.48;61.35;98718.41;5061853;27;129739;-77
2022/05/14 05:30:59;;;;;;;5.57;2.60;;;10.70;1.00;;;12.38;61.93;98714.25;5062575;27;118920;-75
2022/05/14 05:33:29;;;;;;;6.63;2.33;;;10.80;1.00;;;12.65;61.60;98714.66;5062815;27;114756;-78
2022/05/14 05:35:57;;;;;;;5.40;2.28;;;10.90;1.00;;;12.83;61.58;98718.69;5060113;27;129231;-78
2022/05/14 05:38:26;;;;;;;7.20;2.30;;;11.20;1.00;;;13.20;60.23;98718.53;5041520;27;130333;-78
2022/05/14 05:40:54;;;;;;;7.38;2.38;;;11.30;1.00;;;13.49;59.80;98708.41;5041109;27;118757;-76
2022/05/14 05:43:23;;;;;;;7.30;2.38;;;11.50;1.00;;;13.73;58.97;98712.13;5041158;27;115699;-79
2022/05/14 05:45:52;;;;;;;4.53;2.50;;;11.50;1.00;;;13.59;58.24;98715.31;5042884;27;129397;-74
2022/05/14 05:48:21;;;;;;;5.32;2.20;;;11.30;1.00;;;13.74;58.68;98722.66;5041136;27;130125;-77
2022/05/14 05:50:51;;;;;;;5.28;2.15;;;11.70;1.00;;;14.12;57.92;98706.84;5039559;27;119357;-74
2022/05/14 05:53:20;;;;;;;4.90;2.20;;;11.80;1.00;;;13.85;57.89;98706.56;5036132;27;116265;-76
2022/05/14 05:58:35;;;;;;;6.60;2.70;;;11.50;1.00;;;13.68;59.68;98696.03;5041543;27;130403;-76
2022/05/14 06:01:04;;;;;;;9.05;2.70;;;11.70;1.00;;;13.83;58.44;98690.56;5041058;27;119180;-76
2022/05/14 06:03:33;;;;;;;6.18;2.53;;;11.80;1.00;;;14.10;57.99;98699.00;5039841;27;120397;-75
2022/05/14 06:06:02;;;;;;;12.25;2.70;;;11.90;1.00;;;14.48;57.56;98713.09;5038595;27;130903;-77
2022/05/14 06:08:31;;;;;;;7.18;2.67;;;12.20;1.00;;;14.44;56.87;98709.50;5038464;27;131024;-79
2022/05/14 06:11:00;;;;;;;7.13;2.70;;;12.20;1.00;;;14.54;57.54;98701.53;5037453;27;123045;-75
2022/05/14 06:13:29;;;;;;;5.25;2.92;;;12.30;1.00;;;14.34;56.82;98697.97;5039628;27;122636;-78
2022/05/14 06:15:59;;;;;;;5.90;2.80;;;11.70;1.00;;;14.31;57.07;98687.78;5039094;27;130237;-77
2022/05/14 06:18:28;;;;;;;5.53;2.58;;;12.00;1.00;;;14.41;57.60;98696.56;5038632;27;129945;-75
2022/05/14 06:20:56;;;;;;;7.47;2.85;;;12.00;1.00;;;14.39;56.68;98694.97;5039275;27;119547;-77
2022/05/14 06:23:26;;;;;;;13.07;3.17;;;11.80;1.00;;;14.62;56.94;98694.31;5039793;27;119562;-74
2022/05/14 06:25:55;;;;;;;6.80;2.90;;;12.10;1.00;;;14.37;57.74;98691.81;5038872;27;130298;-77
2022/05/14 06:28:23;;;;;;;8.18;3.17;;;12.00;1.00;;;14.18;57.72;98680.88;5039516;27;129946;-77
2022/05/14 06:30:52;;;;;;;8.57;3.70;;;11.80;1.00;;;13.76;58.36;98700.50;5040133;27;121187;-75
2022/05/14 06:33:21;;;;;;;8.48;3.00;;;11.80;1.00;;;13.88;58.30;98681.31;5039653;27;120059;-75
2022/05/14 06:35:49;;;;;;;8.70;3.25;;;11.70;1.00;;;13.87;58.31;98684.41;5061103;27;130138;-71
2022/05/14 06:38:18;;;;;;;6.82;2.95;;;11.60;1.00;;;14.00;59.20;98689.41;5063885;27;129624;-77
2022/05/14 06:40:48;;;;;;;7.93;3.35;;;12.00;1.00;;;14.19;58.91;98685.97;5061313;27;119980;-78
2022/05/14 06:43:16;;;;;;;6.68;2.92;;;12.00;1.00;;;14.54;58.41;98706.22;5057659;27;119877;-81
2022/05/14 06:45:45;;;;;;;10.10;3.90;;;12.20;1.00;;;14.41;56.71;98697.34;5058877;27;130552;-74
2022/05/14 06:48:14;;;;;;;6.80;3.42;;;12.20;1.00;;;14.33;57.07;98696.38;5059550;27;129649;-74
2022/05/14 06:50:48;;;;;;;8.48;3.75;;;12.10;1.00;;;14.48;56.73;98702.19;5059646;27;119555;-76
2022/05/14 06:53:18;;;;;;;9.25;3.70;;;12.10;1.00;;;14.88;55.98;98695.59;5061725;27;118123;-74
2022/05/14 06:55:53;;;;;;;7.00;3.22;;;12.30;1.00;;;15.08;56.24;98680.00;5057805;27;130397;-75
2022/05/14 06:58:27;;;;;;;7.60;3.42;;;12.40;1.00;;;14.60;58.17;98688.44;5059248;27;129255;-75
2022/05/14 07:00:56;;;;;;;7.78;3.50;;;12.60;1.00;;;14.59;57.47;98686.81;5057487;27;121560;-78
2022/05/14 07:08:57;;;;;;;8.00;3.23;;;12.30;1.00;;;14.79;56.73;98673.19;5056778;27;129353;-78
2022/05/14 07:11:27;;;;;;;8.98;3.25;;;12.70;1.00;;;14.92;56.97;98675.41;5058937;27;120039;-74
2022/05/14 07:13:56;;;;;;;10.32;3.00;;;12.60;1.00;;;15.09;57.67;98687.06;5058165;27;120280;-75
2022/05/14 07:16:25;;;;;;;12.18;3.30;;;12.80;1.00;;;15.22;55.90;98674.00;5057643;27;130245;-76
2022/05/14 07:18:53;;;;;;;6.13;3.22;;;12.80;1.00;;;15.16;55.73;98700.06;5056630;27;128819;-73
2022/05/14 07:21:22;;;;;;;11.43;4.40;;;12.80;1.00;;;15.38;55.35;98671.97;5060849;27;119998;-78
2022/05/14 07:23:50;;;;;;;8.93;3.47;;;13.10;1.00;;;15.67;56.01;98672.44;5059239;27;119836;-77
2022/05/14 07:26:19;;;;;;;8.00;3.15;;;13.50;1.00;;;15.75;55.00;98674.16;5057347;27;130841;-78
2022/05/14 07:28:49;;;;;;;8.50;3.67;;;13.10;1.00;;;15.34;55.06;98671.09;5058067;27;129499;-73
2022/05/14 07:31:17;;;;;;;10.30;3.22;;;12.80;1.00;;;15.15;56.53;98679.34;5058327;27;119971;-74
2022/05/14 07:33:46;;;;;;;8.25;3.20;;;12.80;1.00;;;15.36;55.37;98674.25;5058583;27;120225;-76
2022/05/14 07:36:21;;;;;;;16.33;3.42;;;13.20;1.00;;;15.52;55.39;98667.88;5073883;27;130072;-79
2022/05/14 07:38:51;;;;;;;7.80;3.33;;;13.30;1.00;;;15.86;53.38;98679.03;5057652;27;130451;-76
2022/05/14 07:41:19;;;;;;;10.07;3.90;;;13.30;1.00;;;15.78;52.74;98668.00;5059599;27;119887;-79
2022/05/14 07:43:53;;;;;;;7.10;2.95;;;13.20;1.00;;;15.74;52.20;98669.84;5058715;27;119537;-76
2022/05/14 07:46:27;;;;;;;7.05;2.33;;;13.10;1.00;;;15.79;52.08;98663.28;5059049;27;130784;-71
2022/05/14 07:48:58;;;;;;;9.45;3.20;;;13.10;1.00;;;15.69;53.17;98669.34;5058629;27;129381;-77
2022/05/14 07:51:28;;;;;;;6.10;2.75;;;13.10;1.00;;;15.72;53.19;98669.41;5057246;27;122569;-72
2022/05/14 07:53:56;;;;;;;10.25;3.92;;;13.10;1.00;;;15.76;53.81;98664.78;5059342;27;122703;-77
2022/05/14 07:56:24;;;;;;;6.35;2.90;;;13.10;1.00;;;15.57;54.08;98653.94;5057276;27;130082;-75
2022/05/14 07:58:54;;;;;;;13.20;4.63;;;13.10;1.00;;;15.73;55.14;98654.56;5059536;27;128445;-77
2022/05/14 08:01:23;;;;;;;11.55;3.78;;;13.60;1.00;;;15.65;54.43;98661.09;5057782;27;120948;-77
2022/05/14 08:03:52;;;;;;;7.90;3.22;;;13.70;1.00;;;15.63;52.99;98655.22;5058031;27;119521;-77
2022/05/14 08:06:22;;;;;;;10.05;2.90;;;13.70;1.00;;;15.79;52.22;98644.94;5058003;27;129803;-74
2022/05/14 08:08:53;;;;;;;10.82;2.70;;;13.60;1.00;;;16.03;51.39;98656.63;5058561;27;130729;-74
2022/05/14 08:11:22;;;;;;;10.23;2.80;;;14.00;1.00;;;16.35;50.22;98664.50;5067945;27;119908;-75
2022/05/14 08:13:53;;;;;;;6.13;2.75;;;13.80;1.00;;;16.63;49.55;98655.09;5061545;27;119638;-77
2022/05/14 08:16:24;;;;;;;7.65;3.03;;;13.80;1.00;;;16.69;50.69;98653.59;5057358;27;131553;-78
2022/05/14 08:18:53;;;;;;;8.43;2.53;;;14.00;1.00;;;16.52;50.15;98650.25;5058074;27;130432;-77
2022/05/14 08:26:54;;;;;;;;;;;13.20;1.00;;;15.39;53.73;98635.25;5058859;27;130166;-78
2022/05/14 08:29:23;;;;;;;8.02;3.10;;;13.50;1.00;;;15.64;52.50;98645.81;5058536;27;130829;-80
2022/05/14 08:31:53;;;;;;;7.22;2.75;;;13.30;1.00;;;16.14;51.49;98641.16;5059015;27;119501;-75
2022/05/14 08:34:22;;;;;;;8.10;2.20;;;13.70;1.00;;;16.05;49.75;98643.38;5059741;27;119872;-75
2022/05/14 08:36:50;;;;;;;10.40;2.38;;;13.50;1.00;;;16.23;50.40;98649.09;5058144;27;130306;-76
2022/05/14 08:39:19;;;;;;;6.57;2.25;;;13.80;1.00;;;16.26;50.07;98642.88;5058538;27;130252;-73
2022/05/14 08:41:51;;;;;;;5.85;2.00;;;13.50;1.00;;;16.24;49.02;98628.00;5058821;27;121258;-78
2022/05/14 08:44:24;;;;;;;7.00;2.13;;;13.40;1.00;;;16.28;48.52;98629.63;5058504;27;122410;-75
2022/05/14 08:46:57;;;;;;;6.80;2.53;;;13.50;1.00;;;16.10;49.49;98629.34;5058337;27;129477;-79
2022/05/14 08:49:35;;;;;;;9.32;2.55;;;13.50;1.00;;;16.18;50.10;98620.09;5058388;27;129914;-77
2022/05/14 08:52:15;;;;;;;9.13;2.70;;;13.70;1.00;;;16.10;50.80;98617.63;5058932;27;120829;-77
2022/05/14 08:54:43;;;;;;;7.78;2.67;;;13.70;1.00;;;16.45;50.73;98611.81;5059246;27;120811;-77
2022/05/14 08:57:20;;;;;;;7.47;2.90;;;13.90;1.00;;;16.51;49.77;98610.31;5060987;27;130222;-74
2022/05/14 08:59:55;;;;;;;5.93;2.20;;;14.30;1.00;;;16.49;50.14;98611.88;5061192;27;130316;-77
2022/05/14 09:02:31;;;;;;;6.07;2.63;;;14.50;1.00;;;16.78;49.32;98613.00;5059956;27;119653;-75
2022/05/14 09:05:04;;;;;;;6.50;2.50;;;14.30;1.00;;;17.03;49.63;98599.59;5061044;27;119686;-77
2022/05/14 09:07:33;;;;;;;7.97;2.17;;;14.60;1.00;;;17.46;47.82;98601.91;5059375;27;131004;-75
2022/05/14 09:10:01;;;;;;;8.43;2.30;;;14.70;1.00;;;18.01;46.91;98603.09;5062007;27;130998;-77
2022/05/14 09:12:34;;;;;;;6.35;2.55;;;14.90;1.00;;;17.76;46.50;98603.69;5061450;27;119509;-75
2022/05/14 09:15:13;;;;;;;8.75;2.60;;;14.70;1.00;;;17.50;47.35;98600.00;5062189;27;119587;-76
2022/05/14 09:17:44;;;;;;;6.82;2.22;;;14.60;1.00;;;17.61;47.47;98598.13;5060308;27;130449;-79
2022/05/14 09:20:25;;;;;;;7.47;1.95;;;15.30;1.00;;;17.24;46.55;98593.50;5060665;27;129865;-75
2022/05/14 09:22:58;;;;;;;6.05;2.08;;;15.00;99.90;;;16.94;47.83;98599.09;5061063;27;120410;-74
2022/05/14 09:25:30;;;;;;;7.22;2.65;;;14.20;1.00;;;16.45;49.68;98592.66;5060290;27;119722;-72
2022/05/14 09:28:03;;;;;;;7.45;2.50;;;14.00;1.00;;;16.38;49.80;98595.31;5045471;27;129776;-77
2022/05/14 09:30:37;;;;;;;8.98;2.70;;;13.80;1.00;;;16.38;50.43;98594.50;5061268;27;130440;-74
2022/05/14 09:33:10;;;;;;;6.75;2.53;;;13.80;1.00;;;16.41;50.77;98597.31;5059361;27;122117;-75
2022/05/14 09:35:40;;;;;;;9.07;2.60;;;14.20;1.00;;;16.63;49.97;98600.31;5063239;27;121112;-72
2022/05/14 09:38:13;;;;;;;4.20;1.90;;;14.10;1.00;;;16.36;50.88;98592.13;5061307;27;130234;-77
2022/05/14 09:40:42;;;;;;;6.38;2.58;;;14.00;1.00;;;16.32;50.74;98586.63;5059320;27;129843;-72
2022/05/14 09:43:32;;;;;;;7.13;2.08;;;14.00;1.00;;;16.43;50.04;98581.28;5051505;27;120177;-74
2022/05/14 09:46:03;;;;;;;9.73;2.90;;;14.00;1.00;;;16.48;49.93;98580.16;5041101;27;122008;-77
2022/05/14 09:48:37;;;;;;;6.80;2.42;;;14.00;1.00;;;16.32;51.72;98583.13;5041177;27;130518;-77
2022/05/14 09:51:08;;;;;;;10.32;2.55;;;14.10;1.00;;;16.24;55.13;98584.97;5040410;27;130029;-78
2022/05/14 09:53:41;;;;;;;6.10;2.60;;;14.00;1.00;;;15.63;56.10;98578.63;5039737;27;120426;-75
2022/05/14 09:56:46;;;;;;;6.72;2.30;;;13.20;1.00;;;14.93;58.82;98575.13;5039419;27;120384;-74
2022/05/14 09:59:37;;;;;;;5.20;2.30;;;12.90;1.00;;;14.66;58.98;98572.31;5037455;27;130711;-77
2022/05/14 10:02:15;;;;;;;8.25;3.00;;;12.70;1.00;;;14.59;59.88;98572.13;5038831;27;129741;-73
2022/05/14 10:05:02;;;;;;;10.20;2.70;;;12.70;1.00;;;14.48;61.47;98571.94;5038715;27;120333;-73
2022/05/14 10:07:34;;;;;;;;;;;12.80;1.00;;;14.30;63.17;98571.56;5041466;27;120121;-73
2022/05/14 10:10:22;;;;;;;10.52;3.00;;;12.90;1.00;;;14.58;62.86;98559.63;5038505;27;130828;-74
2022/05/14 10:12:57;;;;;;;6.53;2.70;;;13.00;1.00;;;14.81;63.56;98570.63;5038043;27;130203;-74
2022/05/14 10:15:39;;;;;;;8.63;3.10;;;13.20;1.00;;;14.94;62.45;98568.50;5038041;27;120100;-73
2022/05/14 10:18:37;;;;;;;8.98;3.03;;;13.30;1.00;;;14.61;59.48;98569.06;5039238;27;120265;-75
2022/05/14 10:21:13;;;;;;;10.07;3.00;;;13.30;1.00;;;14.43;59.95;98574.97;5040194;27;129647;-76
2022/05/14 10:27:30;;;;;;;8.02;3.85;;;13.10;1.00;;;13.90;64.83;98575.41;5038066;27;122240;-75
2022/05/14 10:30:14;;;;;;;7.22;2.85;;;12.80;1.00;;;13.88;65.59;98583.13;5038520;27;121839;-77
2022/05/14 10:32:43;;;;;;;6.70;2.90;;;12.40;1.00;;;13.86;66.86;98579.22;5040445;27;129351;-73
2022/05/14 10:35:19;;;;;;;5.75;2.70;;;12.30;1.00;;;13.85;66.68;98572.94;5040583;27;129765;-74
2022/05/14 10:37:54;;;;;;;5.40;2.92;;;12.30;1.00;;;13.82;67.13;98565.47;5038588;27;120484;-75
2022/05/14 10:40:30;;;;;;;10.18;3.35;;;12.40;1.00;;;13.81;68.32;98567.41;5040132;27;118779;-75
2022/05/14 10:43:31;;;;;;;7.90;3.20;;;12.40;1.00;;;13.61;66.35;98579.44;5037879;27;130642;-73
2022/05/14 10:46:00;;;;;;;9.02;3.05;;;12.30;1.00;;;13.54;69.89;98607.31;5039697;27;130127;-72
2022/05/14 10:48:44;;;;;;;8.73;3.90;;;12.00;1.00;;;12.57;77.99;98621.91;5038343;27;119766;-73
2022/05/14 10:51:21;;;;;;;9.05;4.05;;;11.00;1.00;;;12.02;84.21;98607.88;5037738;27;119579;-75
2022/05/14 10:53:52;;;;;;;9.88;4.28;;;10.80;1.00;;;11.94;85.14;98605.31;5037473;27;130478;-75
2022/05/14 10:56:28;;;;;;;9.15;4.63;;;10.80;1.00;;;12.30;84.67;98595.47;5037453;27;129820;-75
2022/05/14 10:59:05;;;;;;;9.98;4.25;;;10.90;1.00;;;12.63;84.56;98594.44;5036234;27;120116;-73
2022/05/14 11:02:05;;;;;;;9.98;4.25;;;11.10;1.00;;;12.90;83.34;98596.34;5037827;27;119540;-72
2022/05/14 11:04:47;;;;;;;6.63;3.85;;;11.30;1.00;;;13.35;81.32;98590.88;5037435;27;130197;-72
2022/05/14 11:07:30;;;;;;;7.93;3.88;;;11.50;1.00;;;13.71;78.73;98589.00;5039585;27;129856;-75
2022/05/14 11:10:18;;;;;;;6.93;3.60;;;11.60;1.00;;;14.14;77.43;98584.50;5037291;27;119496;-73